Terminal Aerodrome Forecast
Issued by NWS

Home | Current Version | Previous Version | Text Only | Print | Product List | Glossary Off
Versions: 1 2 3 4 5 6 7 8 9 10 11 12 13 14 15 16 17 18 19 20 21 22

628
FTUS43 KICT 130902 AAA
TAFRSL
TAF AMD
KRSL 130902Z 1309/1406 35007KT P6SM OVC028
     FM131200 02007KT P6SM OVC017
     FM131500 06004KT P6SM OVC022=

USA.gov is the U.S. government's official web portal to all federal, state and local government web resources and services.